Terminal Aerodrome Forecast
Issued by NWS Miami, FL

Home | Current Version | Previous Version | Text Only | Print | Product List | Glossary On
Versions: 1 2 3 4 5 6 7 8 9 10 11 12 13 14 15 16 17 18 19 20 21 22 23 24 25 26 27 28 29 30 31 32 33 34 35 36 37 38 39 40 41 42 43 44 45 46 47 48 49 50
720
FTUS42 KMFL 281511 AAA
TAFAPF
TAF AMD
KAPF 281511Z 2815/2912 09009KT P6SM SCT027 SCT250
     FM281800 25008KT P6SM VCTS SCT030CB BKN060 BKN250
     FM290200 VRB03KT P6SM FEW040=

USA.gov is the U.S. government's official web portal to all federal, state and local government web resources and services.